sensor_id;sensor_type;location;lat;lon;timestamp;temperature;humidity
9305;DHT22;4690;52.422;13.486;2024-03-02T00:10:20;7.60;99.90
9305;DHT22;4690;52.422;13.486;2024-03-02T00:12:51;7.60;99.90
9305;DHT22;4690;52.422;13.486;2024-03-02T00:18:07;7.70;99.90
9305;DHT22;4690;52.422;13.486;2024-03-02T00:20:38;7.60;99.90
9305;DHT22;4690;52.422;13.486;2024-03-02T00:23:07;7.70;99.90
9305;DHT22;4690;52.422;13.486;2024-03-02T00:25:41;7.70;99.90
9305;DHT22;4690;52.422;13.486;2024-03-02T00:28:17;7.70;99.90
9305;DHT22;4690;52.422;13.486;2024-03-02T00:36:11;7.70;99.90
9305;DHT22;4690;52.422;13.486;2024-03-02T00:38:50;7.70;99.90
9305;DHT22;4690;52.422;13.486;2024-03-02T00:41:23;7.60;99.90
9305;DHT22;4690;52.422;13.486;2024-03-02T00:46:29;7.60;99.90
9305;DHT22;4690;52.422;13.486;2024-03-02T00:49:00;7.60;99.90
9305;DHT22;4690;52.422;13.486;2024-03-02T00:51:29;7.70;99.90
9305;DHT22;4690;52.422;13.486;2024-03-02T00:53:58;7.70;99.90
9305;DHT22;4690;52.422;13.486;2024-03-02T00:56:26;7.60;99.90
9305;DHT22;4690;52.422;13.486;2024-03-02T00:58:52;7.70;99.90
9305;DHT22;4690;52.422;13.486;2024-03-02T01:01:18;7.70;99.90
9305;DHT22;4690;52.422;13.486;2024-03-02T01:03:45;7.60;99.90
9305;DHT22;4690;52.422;13.486;2024-03-02T01:06:11;7.70;99.90
9305;DHT22;4690;52.422;13.486;2024-03-02T01:08:38;7.70;99.90
9305;DHT22;4690;52.422;13.486;2024-03-02T01:11:04;7.70;99.90
9305;DHT22;4690;52.422;13.486;2024-03-02T01:13:31;7.70;99.90
9305;DHT22;4690;52.422;13.486;2024-03-02T01:15:57;7.70;99.90
9305;DHT22;4690;52.422;13.486;2024-03-02T01:18:23;7.70;99.90
9305;DHT22;4690;52.422;13.486;2024-03-02T01:20:50;7.70;99.90
9305;DHT22;4690;52.422;13.486;2024-03-02T01:23:22;7.70;99.90
9305;DHT22;4690;52.422;13.486;2024-03-02T01:25:48;7.70;99.90
9305;DHT22;4690;52.422;13.486;2024-03-02T01:28:14;7.80;99.90
9305;DHT22;4690;52.422;13.486;2024-03-02T01:30:41;7.80;99.90
9305;DHT22;4690;52.422;13.486;2024-03-02T01:33:06;7.80;99.90
9305;DHT22;4690;52.422;13.486;2024-03-02T01:35:33;7.90;99.90
9305;DHT22;4690;52.422;13.486;2024-03-02T01:38:00;7.90;99.90
9305;DHT22;4690;52.422;13.486;2024-03-02T01:40:26;7.90;99.90
9305;DHT22;4690;52.422;13.486;2024-03-02T01:42:54;7.90;99.90
9305;DHT22;4690;52.422;13.486;2024-03-02T01:45:21;7.90;99.90
9305;DHT22;4690;52.422;13.486;2024-03-02T01:47:47;7.90;99.90
9305;DHT22;4690;52.422;13.486;2024-03-02T01:50:13;7.90;99.90
9305;DHT22;4690;52.422;13.486;2024-03-02T01:52:40;7.90;99.90
9305;DHT22;4690;52.422;13.486;2024-03-02T01:55:06;7.90;99.90
9305;DHT22;4690;52.422;13.486;2024-03-02T01:57:33;7.90;99.90
9305;DHT22;4690;52.422;13.486;2024-03-02T02:00:00;7.90;99.90
9305;DHT22;4690;52.422;13.486;2024-03-02T02:02:26;7.90;99.90
9305;DHT22;4690;52.422;13.486;2024-03-02T02:04:52;7.90;99.90
9305;DHT22;4690;52.422;13.486;2024-03-02T02:07:18;7.90;99.90
9305;DHT22;4690;52.422;13.486;2024-03-02T02:09:44;7.90;99.90
9305;DHT22;4690;52.422;13.486;2024-03-02T02:12:10;7.90;99.90
9305;DHT22;4690;52.422;13.486;2024-03-02T02:14:36;7.90;99.90
9305;DHT22;4690;52.422;13.486;2024-03-02T02:17:02;7.90;99.90
9305;DHT22;4690;52.422;13.486;2024-03-02T02:19:28;7.90;99.90
9305;DHT22;4690;52.422;13.486;2024-03-02T02:21:55;7.90;99.90
9305;DHT22;4690;52.422;13.486;2024-03-02T02:24:20;7.90;99.90
9305;DHT22;4690;52.422;13.486;2024-03-02T02:26:46;8.00;99.90
9305;DHT22;4690;52.422;13.486;2024-03-02T02:29:12;7.90;99.90
9305;DHT22;4690;52.422;13.486;2024-03-02T02:31:38;8.00;99.90
9305;DHT22;4690;52.422;13.486;2024-03-02T02:34:05;8.00;99.90
9305;DHT22;4690;52.422;13.486;2024-03-02T02:36:39;8.00;99.90
9305;DHT22;4690;52.422;13.486;2024-03-02T02:39:06;8.00;99.90
9305;DHT22;4690;52.422;13.486;2024-03-02T02:41:36;8.10;99.90
9305;DHT22;4690;52.422;13.486;2024-03-02T02:44:02;8.20;99.90
9305;DHT22;4690;52.422;13.486;2024-03-02T02:46:27;8.30;99.90
9305;DHT22;4690;52.422;13.486;2024-03-02T02:48:53;8.30;99.90
9305;DHT22;4690;52.422;13.486;2024-03-02T02:51:19;8.40;99.90
9305;DHT22;4690;52.422;13.486;2024-03-02T02:53:45;8.40;99.90
9305;DHT22;4690;52.422;13.486;2024-03-02T02:56:10;8.40;99.90
9305;DHT22;4690;52.422;13.486;2024-03-02T02:58:36;8.40;99.90
9305;DHT22;4690;52.422;13.486;2024-03-02T03:01:02;8.50;99.90
9305;DHT22;4690;52.422;13.486;2024-03-02T03:03:28;8.50;99.90
9305;DHT22;4690;52.422;13.486;2024-03-02T03:05:53;8.50;99.90
9305;DHT22;4690;52.422;13.486;2024-03-02T03:08:19;8.50;99.90
9305;DHT22;4690;52.422;13.486;2024-03-02T03:10:45;8.50;99.90
9305;DHT22;4690;52.422;13.486;2024-03-02T03:13:10;8.60;99.90
9305;DHT22;4690;52.422;13.486;2024-03-02T03:15:37;8.60;99.90
9305;DHT22;4690;52.422;13.486;2024-03-02T03:18:04;8.50;99.90
9305;DHT22;4690;52.422;13.486;2024-03-02T03:20:30;8.60;99.90
9305;DHT22;4690;52.422;13.486;2024-03-02T03:22:56;8.60;99.90
9305;DHT22;4690;52.422;13.486;2024-03-02T03:25:23;8.60;99.90
9305;DHT22;4690;52.422;13.486;2024-03-02T03:27:48;8.60;99.90
9305;DHT22;4690;52.422;13.486;2024-03-02T03:30:14;8.60;99.90
9305;DHT22;4690;52.422;13.486;2024-03-02T03:32:40;8.60;99.90
9305;DHT22;4690;52.422;13.486;2024-03-02T03:35:07;8.60;99.90
9305;DHT22;4690;52.422;13.486;2024-03-02T03:37:32;8.60;99.90
9305;DHT22;4690;52.422;13.486;2024-03-02T03:39:59;8.70;99.90
9305;DHT22;4690;52.422;13.486;2024-03-02T03:42:26;8.70;99.90
9305;DHT22;4690;52.422;13.486;2024-03-02T03:44:52;8.70;99.90
9305;DHT22;4690;52.422;13.486;2024-03-02T03:47:18;8.70;99.90
9305;DHT22;4690;52.422;13.486;2024-03-02T03:49:45;8.70;99.90
9305;DHT22;4690;52.422;13.486;2024-03-02T03:52:11;8.70;99.90
9305;DHT22;4690;52.422;13.486;2024-03-02T03:54:37;8.70;99.90
9305;DHT22;4690;52.422;13.486;2024-03-02T03:57:04;8.70;99.90
9305;DHT22;4690;52.422;13.486;2024-03-02T03:59:30;8.70;99.90
9305;DHT22;4690;52.422;13.486;2024-03-02T04:01:56;8.70;99.90
9305;DHT22;4690;52.422;13.486;2024-03-02T04:04:22;8.70;99.90
9305;DHT22;4690;52.422;13.486;2024-03-02T04:06:48;8.70;99.90
9305;DHT22;4690;52.422;13.486;2024-03-02T04:09:13;8.70;99.90
9305;DHT22;4690;52.422;13.486;2024-03-02T04:11:39;8.70;99.90
9305;DHT22;4690;52.422;13.486;2024-03-02T04:14:05;8.70;99.90
9305;DHT22;4690;52.422;13.486;2024-03-02T04:16:31;8.70;99.90
9305;DHT22;4690;52.422;13.486;2024-03-02T04:18:57;8.70;99.90
9305;DHT22;4690;52.422;13.486;2024-03-02T04:21:23;8.70;99.90
9305;DHT22;4690;52.422;13.486;2024-03-02T04:23:48;8.70;99.90
9305;DHT22;4690;52.422;13.486;2024-03-02T04:26:14;8.80;99.90
9305;DHT22;4690;52.422;13.486;2024-03-02T04:28:45;8.70;99.90
9305;DHT22;4690;52.422;13.486;2024-03-02T04:31:10;8.80;99.90
9305;DHT22;4690;52.422;13.486;2024-03-02T04:33:36;8.80;99.90
9305;DHT22;4690;52.422;13.486;2024-03-02T04:36:02;8.70;99.90
9305;DHT22;4690;52.422;13.486;2024-03-02T04:38:28;8.80;99.90
9305;DHT22;4690;52.422;13.486;2024-03-02T04:40:54;8.80;99.90
9305;DHT22;4690;52.422;13.486;2024-03-02T04:43:20;8.80;99.90
9305;DHT22;4690;52.422;13.486;2024-03-02T04:45:45;8.80;99.90
9305;DHT22;4690;52.422;13.486;2024-03-02T04:48:11;8.80;99.90
9305;DHT22;4690;52.422;13.486;2024-03-02T04:50:38;8.80;99.90
9305;DHT22;4690;52.422;13.486;2024-03-02T04:53:03;8.80;99.90
9305;DHT22;4690;52.422;13.486;2024-03-02T04:55:29;8.70;99.90
9305;DHT22;4690;52.422;13.486;2024-03-02T04:58:21;8.80;99.90
9305;DHT22;4690;52.422;13.486;2024-03-02T05:00:46;8.80;99.90
9305;DHT22;4690;52.422;13.486;2024-03-02T05:03:12;8.70;99.90
9305;DHT22;4690;52.422;13.486;2024-03-02T05:05:38;8.80;99.90
9305;DHT22;4690;52.422;13.486;2024-03-02T05:08:05;8.80;99.90
9305;DHT22;4690;52.422;13.486;2024-03-02T05:10:31;8.80;99.90
9305;DHT22;4690;52.422;13.486;2024-03-02T05:12:57;8.80;99.90
9305;DHT22;4690;52.422;13.486;2024-03-02T05:15:24;8.80;99.90
9305;DHT22;4690;52.422;13.486;2024-03-02T05:17:50;8.80;99.90
9305;DHT22;4690;52.422;13.486;2024-03-02T05:20:16;8.80;99.90
9305;DHT22;4690;52.422;13.486;2024-03-02T05:22:43;8.90;99.90
9305;DHT22;4690;52.422;13.486;2024-03-02T05:25:08;8.90;99.90
9305;DHT22;4690;52.422;13.486;2024-03-02T05:27:37;8.90;99.90
9305;DHT22;4690;52.422;13.486;2024-03-02T05:30:03;8.90;99.90
9305;DHT22;4690;52.422;13.486;2024-03-02T05:32:32;8.90;99.90
9305;DHT22;4690;52.422;13.486;2024-03-02T05:34:57;8.90;99.90
9305;DHT22;4690;52.422;13.486;2024-03-02T05:37:23;8.90;99.90
9305;DHT22;4690;52.422;13.486;2024-03-02T05:39:49;8.90;99.90
9305;DHT22;4690;52.422;13.486;2024-03-02T05:42:14;8.90;99.90
9305;DHT22;4690;52.422;13.486;2024-03-02T05:44:42;8.90;99.90
9305;DHT22;4690;52.422;13.486;2024-03-02T05:47:07;8.80;99.90
9305;DHT22;4690;52.422;13.486;2024-03-02T05:49:34;8.80;99.90
9305;DHT22;4690;52.422;13.486;2024-03-02T05:52:00;8.80;99.90
9305;DHT22;4690;52.422;13.486;2024-03-02T05:54:26;8.80;99.90
9305;DHT22;4690;52.422;13.486;2024-03-02T05:56:52;8.80;99.90
9305;DHT22;4690;52.422;13.486;2024-03-02T05:59:17;8.80;99.90
9305;DHT22;4690;52.422;13.486;2024-03-02T06:01:44;8.80;99.90
9305;DHT22;4690;52.422;13.486;2024-03-02T06:04:16;8.80;99.90
9305;DHT22;4690;52.422;13.486;2024-03-02T06:06:42;8.80;99.90
9305;DHT22;4690;52.422;13.486;2024-03-02T06:09:08;8.70;99.90
9305;DHT22;4690;52.422;13.486;2024-03-02T06:11:38;8.80;99.90
9305;DHT22;4690;52.422;13.486;2024-03-02T06:14:08;8.70;99.90
9305;DHT22;4690;52.422;13.486;2024-03-02T06:16:34;8.80;99.90
9305;DHT22;4690;52.422;13.486;2024-03-02T06:19:01;8.70;99.90
9305;DHT22;4690;52.422;13.486;2024-03-02T06:21:27;8.70;99.90
9305;DHT22;4690;52.422;13.486;2024-03-02T06:23:53;8.80;99.90
9305;DHT22;4690;52.422;13.486;2024-03-02T06:26:19;8.80;99.90
9305;DHT22;4690;52.422;13.486;2024-03-02T06:28:46;8.70;99.90
9305;DHT22;4690;52.422;13.486;2024-03-02T06:31:12;8.80;99.90
9305;DHT22;4690;52.422;13.486;2024-03-02T06:33:38;8.70;99.90
9305;DHT22;4690;52.422;13.486;2024-03-02T06:36:04;8.80;99.90
9305;DHT22;4690;52.422;13.486;2024-03-02T06:38:30;8.80;99.90
9305;DHT22;4690;52.422;13.486;2024-03-02T06:40:58;8.80;99.90
9305;DHT22;4690;52.422;13.486;2024-03-02T06:43:24;8.80;99.90
9305;DHT22;4690;52.422;13.486;2024-03-02T06:45:51;8.80;99.90
9305;DHT22;4690;52.422;13.486;2024-03-02T06:48:20;8.80;99.90
9305;DHT22;4690;52.422;13.486;2024-03-02T06:50:46;8.70;99.90
9305;DHT22;4690;52.422;13.486;2024-03-02T06:53:13;8.80;99.90
9305;DHT22;4690;52.422;13.486;2024-03-02T06:55:39;8.80;99.90
9305;DHT22;4690;52.422;13.486;2024-03-02T06:58:05;8.90;99.90
9305;DHT22;4690;52.422;13.486;2024-03-02T07:00:31;8.80;99.90
9305;DHT22;4690;52.422;13.486;2024-03-02T07:02:57;8.80;99.90
9305;DHT22;4690;52.422;13.486;2024-03-02T07:05:23;8.90;99.90
9305;DHT22;4690;52.422;13.486;2024-03-02T07:07:49;8.90;99.90
9305;DHT22;4690;52.422;13.486;2024-03-02T07:10:15;8.80;99.90
9305;DHT22;4690;52.422;13.486;2024-03-02T07:12:41;8.80;99.90
9305;DHT22;4690;52.422;13.486;2024-03-02T07:15:07;8.90;99.90
9305;DHT22;4690;52.422;13.486;2024-03-02T07:17:33;8.90;99.90
9305;DHT22;4690;52.422;13.486;2024-03-02T07:19:59;8.90;99.90
9305;DHT22;4690;52.422;13.486;2024-03-02T07:22:25;8.90;99.90
9305;DHT22;4690;52.422;13.486;2024-03-02T07:24:50;8.90;99.90
9305;DHT22;4690;52.422;13.486;2024-03-02T07:27:17;8.90;99.90
9305;DHT22;4690;52.422;13.486;2024-03-02T07:29:43;8.90;99.90
9305;DHT22;4690;52.422;13.486;2024-03-02T07:32:10;8.90;99.90
9305;DHT22;4690;52.422;13.486;2024-03-02T07:34:36;8.90;99.90
9305;DHT22;4690;52.422;13.486;2024-03-02T07:37:03;8.90;99.90
9305;DHT22;4690;52.422;13.486;2024-03-02T07:39:29;9.00;99.90
9305;DHT22;4690;52.422;13.486;2024-03-02T07:41:56;9.00;99.90
9305;DHT22;4690;52.422;13.486;2024-03-02T07:44:21;9.00;99.90
9305;DHT22;4690;52.422;13.486;2024-03-02T07:46:48;9.10;99.90
9305;DHT22;4690;52.422;13.486;2024-03-02T07:49:20;9.10;99.90
9305;DHT22;4690;52.422;13.486;2024-03-02T07:51:46;9.10;99.90
9305;DHT22;4690;52.422;13.486;2024-03-02T07:54:12;9.10;99.90
9305;DHT22;4690;52.422;13.486;2024-03-02T07:56:38;9.20;99.90
9305;DHT22;4690;52.422;13.486;2024-03-02T07:59:04;9.20;99.90
9305;DHT22;4690;52.422;13.486;2024-03-02T08:01:31;9.20;99.90
9305;DHT22;4690;52.422;13.486;2024-03-02T08:03:58;9.20;99.90
9305;DHT22;4690;52.422;13.486;2024-03-02T08:06:26;9.30;99.90
9305;DHT22;4690;52.422;13.486;2024-03-02T08:09:02;9.30;99.90
9305;DHT22;4690;52.422;13.486;2024-03-02T08:11:33;9.30;99.90
9305;DHT22;4690;52.422;13.486;2024-03-02T08:14:00;9.40;99.90
9305;DHT22;4690;52.422;13.486;2024-03-02T08:16:26;9.40;99.90
9305;DHT22;4690;52.422;13.486;2024-03-02T08:18:52;9.40;99.90
9305;DHT22;4690;52.422;13.486;2024-03-02T08:21:18;9.50;99.90
9305;DHT22;4690;52.422;13.486;2024-03-02T08:23:44;9.50;99.90
9305;DHT22;4690;52.422;13.486;2024-03-02T08:26:10;9.50;99.90
9305;DHT22;4690;52.422;13.486;2024-03-02T08:28:37;9.50;99.90
9305;DHT22;4690;52.422;13.486;2024-03-02T08:31:04;9.50;99.90
9305;DHT22;4690;52.422;13.486;2024-03-02T08:33:30;9.60;99.90
9305;DHT22;4690;52.422;13.486;2024-03-02T08:35:56;9.60;99.90
9305;DHT22;4690;52.422;13.486;2024-03-02T08:38:22;9.50;99.90
9305;DHT22;4690;52.422;13.486;2024-03-02T08:40:50;9.60;99.90
9305;DHT22;4690;52.422;13.486;2024-03-02T08:43:16;9.60;99.90
9305;DHT22;4690;52.422;13.486;2024-03-02T08:45:43;9.60;99.90
9305;DHT22;4690;52.422;13.486;2024-03-02T08:48:09;9.60;99.90
9305;DHT22;4690;52.422;13.486;2024-03-02T08:50:35;9.70;99.90
9305;DHT22;4690;52.422;13.486;2024-03-02T08:53:05;9.70;99.90
9305;DHT22;4690;52.422;13.486;2024-03-02T08:55:31;9.70;99.90
9305;DHT22;4690;52.422;13.486;2024-03-02T08:57:57;9.80;99.90
9305;DHT22;4690;52.422;13.486;2024-03-02T09:00:23;9.80;99.90
9305;DHT22;4690;52.422;13.486;2024-03-02T09:02:49;9.90;99.90
9305;DHT22;4690;52.422;13.486;2024-03-02T09:05:15;9.90;99.90
9305;DHT22;4690;52.422;13.486;2024-03-02T09:07:41;10.00;99.90
9305;DHT22;4690;52.422;13.486;2024-03-02T09:10:08;10.00;99.90
9305;DHT22;4690;52.422;13.486;2024-03-02T09:12:35;10.00;99.90
9305;DHT22;4690;52.422;13.486;2024-03-02T09:15:02;10.00;99.90
9305;DHT22;4690;52.422;13.486;2024-03-02T09:17:29;10.00;99.90
9305;DHT22;4690;52.422;13.486;2024-03-02T09:19:55;10.00;99.90
9305;DHT22;4690;52.422;13.486;2024-03-02T09:22:21;10.10;99.90
9305;DHT22;4690;52.422;13.486;2024-03-02T09:24:47;10.00;99.90
9305;DHT22;4690;52.422;13.486;2024-03-02T09:27:12;10.10;99.90
9305;DHT22;4690;52.422;13.486;2024-03-02T09:29:38;10.10;99.90
9305;DHT22;4690;52.422;13.486;2024-03-02T09:32:05;10.10;99.90
9305;DHT22;4690;52.422;13.486;2024-03-02T09:34:31;10.20;99.90
9305;DHT22;4690;52.422;13.486;2024-03-02T09:36:57;10.20;99.90
9305;DHT22;4690;52.422;13.486;2024-03-02T09:39:24;10.20;99.90
9305;DHT22;4690;52.422;13.486;2024-03-02T09:41:53;10.40;99.90
9305;DHT22;4690;52.422;13.486;2024-03-02T09:44:19;10.40;99.90
9305;DHT22;4690;52.422;13.486;2024-03-02T09:46:49;10.40;99.90
9305;DHT22;4690;52.422;13.486;2024-03-02T09:49:15;10.50;99.90
9305;DHT22;4690;52.422;13.486;2024-03-02T09:51:40;10.60;99.90
9305;DHT22;4690;52.422;13.486;2024-03-02T09:54:15;10.70;99.90
9305;DHT22;4690;52.422;13.486;2024-03-02T09:56:42;10.70;99.90
9305;DHT22;4690;52.422;13.486;2024-03-02T09:59:08;10.80;99.90
9305;DHT22;4690;52.422;13.486;2024-03-02T10:01:34;11.00;99.90
9305;DHT22;4690;52.422;13.486;2024-03-02T10:04:00;11.20;99.90
9305;DHT22;4690;52.422;13.486;2024-03-02T10:06:28;11.10;99.90
9305;DHT22;4690;52.422;13.486;2024-03-02T10:08:55;11.40;99.90
9305;DHT22;4690;52.422;13.486;2024-03-02T10:11:31;11.30;99.90
9305;DHT22;4690;52.422;13.486;2024-03-02T10:14:09;11.30;99.90
9305;DHT22;4690;52.422;13.486;2024-03-02T10:16:38;11.30;99.90
9305;DHT22;4690;52.422;13.486;2024-03-02T10:19:23;11.30;99.90
9305;DHT22;4690;52.422;13.486;2024-03-02T10:21:55;11.40;99.90
9305;DHT22;4690;52.422;13.486;2024-03-02T10:24:23;11.50;99.90
9305;DHT22;4690;52.422;13.486;2024-03-02T10:26:51;11.60;99.90
9305;DHT22;4690;52.422;13.486;2024-03-02T10:29:18;11.60;99.90
9305;DHT22;4690;52.422;13.486;2024-03-02T10:31:45;11.70;99.90
9305;DHT22;4690;52.422;13.486;2024-03-02T10:34:12;11.60;99.90
9305;DHT22;4690;52.422;13.486;2024-03-02T10:36:42;11.60;99.90
9305;DHT22;4690;52.422;13.486;2024-03-02T10:39:10;11.50;99.90
9305;DHT22;4690;52.422;13.486;2024-03-02T10:41:38;11.60;99.90
9305;DHT22;4690;52.422;13.486;2024-03-02T10:44:06;11.60;99.90
9305;DHT22;4690;52.422;13.486;2024-03-02T10:46:35;11.60;99.90
9305;DHT22;4690;52.422;13.486;2024-03-02T10:49:03;11.70;99.90
9305;DHT22;4690;52.422;13.486;2024-03-02T10:51:32;11.80;99.90
9305;DHT22;4690;52.422;13.486;2024-03-02T10:54:00;11.90;99.90
9305;DHT22;4690;52.422;13.486;2024-03-02T10:56:33;11.90;99.90
9305;DHT22;4690;52.422;13.486;2024-03-02T11:01:55;12.10;99.90
9305;DHT22;4690;52.422;13.486;2024-03-02T11:04:26;12.10;99.90
9305;DHT22;4690;52.422;13.486;2024-03-02T11:07:10;12.10;99.90
9305;DHT22;4690;52.422;13.486;2024-03-02T11:10:05;12.10;99.90
9305;DHT22;4690;52.422;13.486;2024-03-02T11:12:39;12.20;99.90
9305;DHT22;4690;52.422;13.486;2024-03-02T11:15:24;12.30;99.90
9305;DHT22;4690;52.422;13.486;2024-03-02T11:17:52;12.20;99.90
9305;DHT22;4690;52.422;13.486;2024-03-02T11:20:19;12.30;99.90
9305;DHT22;4690;52.422;13.486;2024-03-02T11:22:45;12.40;99.90
9305;DHT22;4690;52.422;13.486;2024-03-02T11:25:25;12.30;99.90
9305;DHT22;4690;52.422;13.486;2024-03-02T11:33:02;12.70;99.90
9305;DHT22;4690;52.422;13.486;2024-03-02T11:35:35;13.00;99.90
9305;DHT22;4690;52.422;13.486;2024-03-02T11:38:02;13.00;99.90
9305;DHT22;4690;52.422;13.486;2024-03-02T11:40:29;13.00;99.90
9305;DHT22;4690;52.422;13.486;2024-03-02T11:42:56;13.10;99.90
9305;DHT22;4690;52.422;13.486;2024-03-02T11:45:28;12.80;99.90
9305;DHT22;4690;52.422;13.486;2024-03-02T11:47:57;13.00;99.90
9305;DHT22;4690;52.422;13.486;2024-03-02T11:50:51;13.30;99.90
9305;DHT22;4690;52.422;13.486;2024-03-02T11:53:17;13.40;99.90
9305;DHT22;4690;52.422;13.486;2024-03-02T11:55:44;13.30;99.90
9305;DHT22;4690;52.422;13.486;2024-03-02T11:58:12;13.40;99.90
9305;DHT22;4690;52.422;13.486;2024-03-02T12:00:39;13.40;99.90
9305;DHT22;4690;52.422;13.486;2024-03-02T12:03:06;13.50;99.90
9305;DHT22;4690;52.422;13.486;2024-03-02T12:05:34;13.60;99.90
9305;DHT22;4690;52.422;13.486;2024-03-02T12:08:03;13.70;99.90
9305;DHT22;4690;52.422;13.486;2024-03-02T12:10:31;14.10;99.90
9305;DHT22;4690;52.422;13.486;2024-03-02T12:15:34;14.10;99.90
9305;DHT22;4690;52.422;13.486;2024-03-02T12:18:05;14.50;99.90
9305;DHT22;4690;52.422;13.486;2024-03-02T12:20:33;14.50;99.90
9305;DHT22;4690;52.422;13.486;2024-03-02T12:23:02;14.10;99.90
9305;DHT22;4690;52.422;13.486;2024-03-02T12:25:31;14.60;99.90
9305;DHT22;4690;52.422;13.486;2024-03-02T12:28:00;14.70;99.90
9305;DHT22;4690;52.422;13.486;2024-03-02T12:30:30;14.50;99.90
9305;DHT22;4690;52.422;13.486;2024-03-02T12:33:00;14.50;99.90
9305;DHT22;4690;52.422;13.486;2024-03-02T12:35:26;14.50;99.90
9305;DHT22;4690;52.422;13.486;2024-03-02T12:37:53;14.60;99.90
9305;DHT22;4690;52.422;13.486;2024-03-02T12:40:21;14.20;99.90
9305;DHT22;4690;52.422;13.486;2024-03-02T12:42:48;14.10;99.90
9305;DHT22;4690;52.422;13.486;2024-03-02T12:45:15;14.00;99.90
9305;DHT22;4690;52.422;13.486;2024-03-02T12:47:48;13.80;99.90
9305;DHT22;4690;52.422;13.486;2024-03-02T12:50:14;13.90;99.90
9305;DHT22;4690;52.422;13.486;2024-03-02T12:52:40;14.10;99.90
9305;DHT22;4690;52.422;13.486;2024-03-02T12:55:07;14.20;99.90
9305;DHT22;4690;52.422;13.486;2024-03-02T12:57:33;14.30;99.90
9305;DHT22;4690;52.422;13.486;2024-03-02T13:00:06;14.10;99.90
9305;DHT22;4690;52.422;13.486;2024-03-02T13:02:39;14.00;99.90
9305;DHT22;4690;52.422;13.486;2024-03-02T13:05:07;14.10;99.90
9305;DHT22;4690;52.422;13.486;2024-03-02T13:07:37;14.20;99.90
9305;DHT22;4690;52.422;13.486;2024-03-02T13:10:04;14.30;99.90
9305;DHT22;4690;52.422;13.486;2024-03-02T13:12:32;14.80;99.90
9305;DHT22;4690;52.422;13.486;2024-03-02T13:14:58;14.90;99.90
9305;DHT22;4690;52.422;13.486;2024-03-02T13:17:24;14.90;99.90
9305;DHT22;4690;52.422;13.486;2024-03-02T13:19:57;14.70;99.90
9305;DHT22;4690;52.422;13.486;2024-03-02T13:22:24;15.20;99.90
9305;DHT22;4690;52.422;13.486;2024-03-02T13:24:51;15.10;99.90
9305;DHT22;4690;52.422;13.486;2024-03-02T13:27:17;15.00;99.90
9305;DHT22;4690;52.422;13.486;2024-03-02T13:29:46;15.60;99.90
9305;DHT22;4690;52.422;13.486;2024-03-02T13:32:16;15.50;99.90
9305;DHT22;4690;52.422;13.486;2024-03-02T13:34:43;15.30;99.90
9305;DHT22;4690;52.422;13.486;2024-03-02T13:37:09;15.60;99.90
9305;DHT22;4690;52.422;13.486;2024-03-02T13:39:35;15.60;99.90
9305;DHT22;4690;52.422;13.486;2024-03-02T13:42:11;15.40;99.90
9305;DHT22;4690;52.422;13.486;2024-03-02T13:44:39;15.70;99.90
9305;DHT22;4690;52.422;13.486;2024-03-02T13:47:05;15.20;99.90
9305;DHT22;4690;52.422;13.486;2024-03-02T13:49:31;15.10;99.90
9305;DHT22;4690;52.422;13.486;2024-03-02T13:52:03;15.10;99.90
9305;DHT22;4690;52.422;13.486;2024-03-02T13:54:37;15.10;99.90
9305;DHT22;4690;52.422;13.486;2024-03-02T13:57:04;15.40;99.90
9305;DHT22;4690;52.422;13.486;2024-03-02T13:59:30;15.60;99.90
9305;DHT22;4690;52.422;13.486;2024-03-02T14:01:56;15.50;99.90
9305;DHT22;4690;52.422;13.486;2024-03-02T14:04:23;15.40;99.90
9305;DHT22;4690;52.422;13.486;2024-03-02T14:06:49;15.20;99.90
9305;DHT22;4690;52.422;13.486;2024-03-02T14:09:14;15.10;99.90
9305;DHT22;4690;52.422;13.486;2024-03-02T14:11:40;15.20;99.90
9305;DHT22;4690;52.422;13.486;2024-03-02T14:14:06;15.10;99.90
9305;DHT22;4690;52.422;13.486;2024-03-02T14:16:32;15.10;99.90
9305;DHT22;4690;52.422;13.486;2024-03-02T14:18:58;15.10;99.90
9305;DHT22;4690;52.422;13.486;2024-03-02T14:21:24;15.30;99.90
9305;DHT22;4690;52.422;13.486;2024-03-02T14:23:50;15.20;99.90
9305;DHT22;4690;52.422;13.486;2024-03-02T14:26:16;15.10;99.90
9305;DHT22;4690;52.422;13.486;2024-03-02T14:28:41;14.70;99.90
9305;DHT22;4690;52.422;13.486;2024-03-02T14:31:07;14.60;99.90
9305;DHT22;4690;52.422;13.486;2024-03-02T14:33:33;14.70;99.90
9305;DHT22;4690;52.422;13.486;2024-03-02T14:35:59;15.00;99.90
9305;DHT22;4690;52.422;13.486;2024-03-02T14:38:25;15.00;99.90
9305;DHT22;4690;52.422;13.486;2024-03-02T14:40:52;15.10;99.90
9305;DHT22;4690;52.422;13.486;2024-03-02T14:43:17;14.80;99.90
9305;DHT22;4690;52.422;13.486;2024-03-02T14:45:43;14.70;99.90
9305;DHT22;4690;52.422;13.486;2024-03-02T14:48:09;14.80;99.90
9305;DHT22;4690;52.422;13.486;2024-03-02T14:50:35;14.60;99.90
9305;DHT22;4690;52.422;13.486;2024-03-02T14:53:01;14.60;99.90
9305;DHT22;4690;52.422;13.486;2024-03-02T14:55:27;14.50;99.90
9305;DHT22;4690;52.422;13.486;2024-03-02T14:57:53;14.40;99.90
9305;DHT22;4690;52.422;13.486;2024-03-02T15:00:19;14.30;99.90
9305;DHT22;4690;52.422;13.486;2024-03-02T15:02:45;14.30;99.90
9305;DHT22;4690;52.422;13.486;2024-03-02T15:05:11;14.20;99.90
9305;DHT22;4690;52.422;13.486;2024-03-02T15:07:36;14.20;99.90
9305;DHT22;4690;52.422;13.486;2024-03-02T15:10:04;14.10;99.90
9305;DHT22;4690;52.422;13.486;2024-03-02T15:12:30;14.00;99.90
9305;DHT22;4690;52.422;13.486;2024-03-02T15:14:56;14.10;99.90
9305;DHT22;4690;52.422;13.486;2024-03-02T15:17:22;14.00;99.90
9305;DHT22;4690;52.422;13.486;2024-03-02T15:19:48;14.00;99.90
9305;DHT22;4690;52.422;13.486;2024-03-02T15:22:13;14.00;99.90
9305;DHT22;4690;52.422;13.486;2024-03-02T15:24:39;13.90;99.90
9305;DHT22;4690;52.422;13.486;2024-03-02T15:27:05;13.90;99.90
9305;DHT22;4690;52.422;13.486;2024-03-02T15:29:33;13.90;99.90
9305;DHT22;4690;52.422;13.486;2024-03-02T15:32:00;13.70;99.90
9305;DHT22;4690;52.422;13.486;2024-03-02T15:34:26;13.80;99.90
9305;DHT22;4690;52.422;13.486;2024-03-02T15:36:52;13.70;99.90
9305;DHT22;4690;52.422;13.486;2024-03-02T15:39:18;13.70;99.90
9305;DHT22;4690;52.422;13.486;2024-03-02T15:41:44;13.60;99.90
9305;DHT22;4690;52.422;13.486;2024-03-02T15:44:10;13.50;99.90
9305;DHT22;4690;52.422;13.486;2024-03-02T15:46:37;13.50;99.90
9305;DHT22;4690;52.422;13.486;2024-03-02T15:49:03;13.40;99.90
9305;DHT22;4690;52.422;13.486;2024-03-02T15:51:31;13.30;99.90
9305;DHT22;4690;52.422;13.486;2024-03-02T15:53:58;13.30;99.90
9305;DHT22;4690;52.422;13.486;2024-03-02T15:56:24;13.20;99.90
9305;DHT22;4690;52.422;13.486;2024-03-02T15:58:50;13.10;99.90
9305;DHT22;4690;52.422;13.486;2024-03-02T16:01:16;13.10;99.90
9305;DHT22;4690;52.422;13.486;2024-03-02T16:03:42;13.00;99.90
9305;DHT22;4690;52.422;13.486;2024-03-02T16:06:08;13.00;99.90
9305;DHT22;4690;52.422;13.486;2024-03-02T16:08:33;12.90;99.90
9305;DHT22;4690;52.422;13.486;2024-03-02T16:11:00;12.90;99.90
9305;DHT22;4690;52.422;13.486;2024-03-02T16:13:25;12.80;99.90
9305;DHT22;4690;52.422;13.486;2024-03-02T16:15:51;12.80;99.90
9305;DHT22;4690;52.422;13.486;2024-03-02T16:18:17;12.80;99.90
9305;DHT22;4690;52.422;13.486;2024-03-02T16:20:42;12.70;99.90
9305;DHT22;4690;52.422;13.486;2024-03-02T16:23:08;12.70;99.90
9305;DHT22;4690;52.422;13.486;2024-03-02T16:25:34;12.60;99.90